Time;durP1;ratioP1;P1;durP2;ratioP2;P2;SDS_P1;SDS_P2;PMS_P1;PMS_P2;Temp;Humidity;BMP_temperature;BMP_pressure;BME280_temperature;BME280_humidity;BME280_pressure;Samples;Min_cycle;Max_cycle;Signal;HPM_P1;HPM_P2
2023/12/03 00:02:19;;;;;;;45.40;29.08;;;;;;;9.08;100.00;99035.34;5024708;28;20239;-64
2023/12/03 00:04:46;;;;;;;49.53;29.30;;;;;;;9.02;100.00;99043.13;5025025;28;20041;-64
2023/12/03 00:07:12;;;;;;;47.85;29.48;;;;;;;9.11;100.00;99040.28;5024538;28;20041;-65
2023/12/03 00:09:38;;;;;;;48.80;29.33;;;;;;;9.15;100.00;99043.41;5024488;28;20092;-64
2023/12/03 00:12:07;;;;;;;50.55;29.02;;;;;;;9.10;100.00;99028.06;5025221;28;20041;-66
2023/12/03 00:14:33;;;;;;;44.38;29.00;;;;;;;9.10;100.00;99016.69;5032062;28;20243;-63
2023/12/03 00:16:58;;;;;;;48.28;29.42;;;;;;;9.10;100.00;99028.06;5023750;28;20041;-66
2023/12/03 00:19:24;;;;;;;52.58;30.05;;;;;;;9.01;100.00;99028.25;5034074;28;20033;-66
2023/12/03 00:21:50;;;;;;;52.15;30.83;;;;;;;8.79;100.00;99040.34;5023747;28;20351;-66
2023/12/03 00:24:15;;;;;;;55.30;30.92;;;;;;;8.88;100.00;99066.56;5025434;28;20116;-64
2023/12/03 00:26:41;;;;;;;52.92;31.55;;;;;;;8.42;100.00;99060.19;5026043;28;20041;-65
2023/12/03 00:29:06;;;;;;;55.00;31.75;;;;;;;8.54;100.00;99063.31;5025959;28;20044;-65
2023/12/03 00:31:32;;;;;;;49.95;30.80;;;;;;;8.60;100.00;99046.81;5033114;28;20056;-66
2023/12/03 00:33:58;;;;;;;54.33;30.83;;;;;;;8.47;100.00;99062.31;5024457;28;20046;-65
2023/12/03 00:36:23;;;;;;;48.90;29.50;;;;;;;8.62;100.00;99063.31;5025006;28;20052;-66
2023/12/03 00:38:49;;;;;;;51.28;28.65;;;;;;;8.68;100.00;99064.47;5025203;28;20239;-66
2023/12/03 00:41:14;;;;;;;52.95;30.88;;;;;;;8.77;100.00;99074.03;5025411;28;20138;-64
2023/12/03 00:43:39;;;;;;;50.05;30.25;;;;;;;8.79;100.00;99087.88;5024328;28;20044;-64
2023/12/03 00:46:05;;;;;;;50.13;31.70;;;;;;;8.85;100.00;99084.56;5021573;28;20046;-66
2023/12/03 00:48:30;;;;;;;46.38;28.48;;;;;;;8.83;100.00;99087.38;5023825;28;20105;-66
2023/12/03 00:50:56;;;;;;;50.33;31.02;;;;;;;8.91;100.00;99083.91;5024107;28;20042;-66
2023/12/03 00:53:21;;;;;;;51.00;31.05;;;;;;;8.97;100.00;99085.88;5024595;28;20029;-66
2023/12/03 00:55:47;;;;;;;57.03;30.30;;;;;;;9.00;100.00;99087.34;5024914;28;20059;-66
2023/12/03 00:58:12;;;;;;;49.80;28.75;;;;;;;8.95;100.00;99088.69;5024533;28;20036;-65
2023/12/03 01:00:37;;;;;;;50.08;31.55;;;;;;;8.88;100.00;99092.97;5024674;28;20046;-65
2023/12/03 01:03:03;;;;;;;47.47;29.35;;;;;;;8.58;100.00;99094.47;5024611;28;20022;-66
2023/12/03 01:05:28;;;;;;;52.83;30.75;;;;;;;8.67;100.00;99103.22;5028259;28;20049;-66
2023/12/03 01:07:54;;;;;;;57.47;31.20;;;;;;;8.69;100.00;99103.88;5022698;28;20049;-65
2023/12/03 01:10:19;;;;;;;51.58;29.77;;;;;;;8.78;100.00;99102.88;5024694;28;20034;-64
2023/12/03 01:12:45;;;;;;;51.22;28.75;;;;;;;8.85;100.00;99110.97;5021968;28;20041;-65
2023/12/03 01:15:10;;;;;;;49.13;30.73;;;;;;;8.53;100.00;99119.72;5028180;28;20033;-66
2023/12/03 01:17:35;;;;;;;53.38;32.40;;;;;;;8.31;100.00;99114.03;5022646;28;20048;-65
2023/12/03 01:20:01;;;;;;;52.97;33.45;;;;;;;8.49;100.00;99113.94;5024972;28;20042;-66
2023/12/03 01:22:26;;;;;;;56.05;31.65;;;;;;;8.42;100.00;99101.56;5023428;28;20041;-64
2023/12/03 01:24:52;;;;;;;47.42;29.17;;;;;;;8.58;100.00;99097.13;5023867;28;20231;-64
2023/12/03 01:27:17;;;;;;;51.75;30.85;;;;;;;8.59;100.00;99104.06;5023720;28;20021;-66
2023/12/03 01:29:43;;;;;;;56.92;33.10;;;;;;;8.62;100.00;99105.53;5026893;28;20047;-66
2023/12/03 01:32:08;;;;;;;48.97;31.45;;;;;;;8.67;100.00;99095.31;5034676;28;20300;-66
2023/12/03 01:34:33;;;;;;;50.53;32.45;;;;;;;8.73;100.00;99099.09;5025999;28;20041;-66
2023/12/03 01:36:59;;;;;;;51.97;31.83;;;;;;;8.67;100.00;99097.13;5035026;28;20030;-64
2023/12/03 01:39:24;;;;;;;54.17;32.05;;;;;;;8.36;100.00;99113.59;5034525;28;20041;-66
2023/12/03 01:41:53;;;;;;;52.33;30.70;;;;;;;8.50;100.00;99104.22;5028161;28;20037;-66
2023/12/03 01:44:18;;;;;;;53.65;31.05;;;;;;;8.61;100.00;99095.97;5027437;28;20050;-66
2023/12/03 01:46:48;;;;;;;49.25;30.67;;;;;;;8.72;100.00;99100.09;5024461;28;20036;-64
2023/12/03 01:49:13;;;;;;;48.40;28.90;;;;;;;8.43;100.00;99103.22;5028227;28;20304;-66
2023/12/03 01:51:39;;;;;;;54.45;33.30;;;;;;;8.29;100.00;99105.47;5027951;28;20048;-66
2023/12/03 01:54:05;;;;;;;51.78;30.85;;;;;;;8.36;100.00;99110.97;5027367;28;20049;-67
2023/12/03 01:56:30;;;;;;;49.33;29.67;;;;;;;8.42;100.00;99104.22;5028135;28;20112;-64
2023/12/03 01:58:57;;;;;;;48.65;28.67;;;;;;;8.44;100.00;99097.78;5027202;28;20446;-64
2023/12/03 02:01:22;;;;;;;42.85;27.73;;;;;;;8.59;100.00;99119.06;5027127;28;20057;-64
2023/12/03 02:03:48;;;;;;;41.90;25.63;;;;;;;8.61;100.00;99101.25;5027621;28;20033;-66
2023/12/03 02:06:13;;;;;;;43.03;25.70;;;;;;;8.67;100.00;99105.88;5027054;28;20044;-65
2023/12/03 02:08:39;;;;;;;45.00;25.85;;;;;;;8.79;100.00;99107.19;5027101;28;20171;-64
2023/12/03 02:11:06;;;;;;;39.88;25.05;;;;;;;8.54;100.00;99113.44;5029936;28;20112;-64
2023/12/03 02:13:33;;;;;;;38.72;23.83;;;;;;;8.29;100.00;99123.09;5026869;28;20237;-66
2023/12/03 02:15:58;;;;;;;43.83;25.30;;;;;;;8.39;100.00;99126.47;5027825;28;20045;-64
2023/12/03 02:18:27;;;;;;;43.72;26.17;;;;;;;8.24;100.00;99123.56;5028710;28;20034;-64
2023/12/03 02:20:56;;;;;;;41.17;25.13;;;;;;;8.17;100.00;99130.50;5027004;28;20088;-66
2023/12/03 02:23:21;;;;;;;39.45;26.42;;;;;;;7.94;100.00;99121.53;5026988;28;20279;-65
2023/12/03 02:25:51;;;;;;;35.10;22.80;;;;;;;7.96;100.00;99117.75;5026475;28;20049;-66
2023/12/03 02:28:18;;;;;;;36.15;21.75;;;;;;;7.91;100.00;99114.78;5027222;28;20042;-64
2023/12/03 02:30:44;;;;;;;37.75;25.02;;;;;;;7.93;100.00;99104.06;5026898;28;20125;-64
2023/12/03 02:33:09;;;;;;;40.53;23.00;;;;;;;8.05;100.00;99099.31;5026767;28;20026;-66
2023/12/03 02:35:34;;;;;;;40.33;23.52;;;;;;;8.13;100.00;99105.44;5026409;28;20046;-64
2023/12/03 02:38:00;;;;;;;35.03;22.23;;;;;;;8.33;100.00;99106.00;5026695;28;20037;-64
2023/12/03 02:40:26;;;;;;;33.33;21.20;;;;;;;8.44;100.00;99115.44;5026117;28;20050;-64
2023/12/03 02:42:51;;;;;;;32.35;20.65;;;;;;;8.46;100.00;99114.28;5026500;28;20034;-64
2023/12/03 02:45:17;;;;;;;31.65;19.60;;;;;;;8.37;100.00;99120.53;5027162;28;20119;-66
2023/12/03 02:47:42;;;;;;;32.15;20.45;;;;;;;8.35;100.00;99129.59;5026234;28;20042;-66
2023/12/03 02:50:08;;;;;;;33.35;19.35;;;;;;;8.47;100.00;99136.19;5025801;28;20302;-66
2023/12/03 02:52:34;;;;;;;30.83;19.75;;;;;;;8.39;100.00;99136.19;5026551;28;20056;-64
2023/12/03 02:55:00;;;;;;;31.38;20.38;;;;;;;8.22;100.00;99130.81;5026400;28;20339;-64
2023/12/03 02:57:26;;;;;;;26.17;18.98;;;;;;;8.11;100.00;99139.03;5026504;28;20045;-64
2023/12/03 02:59:51;;;;;;;33.47;20.58;;;;;;;8.27;100.00;99144.34;5025673;28;20048;-64
2023/12/03 03:02:17;;;;;;;27.52;19.27;;;;;;;8.37;100.00;99146.09;5025756;28;20108;-64
2023/12/03 03:04:42;;;;;;;28.17;20.25;;;;;;;8.49;100.00;99142.97;5025851;28;20039;-64
2023/12/03 03:07:07;;;;;;;27.10;18.00;;;;;;;8.61;100.00;99140.84;5029320;28;20061;-66
2023/12/03 03:09:33;;;;;;;27.17;17.70;;;;;;;8.74;100.00;99143.81;5026354;28;20041;-66
2023/12/03 03:11:58;;;;;;;28.15;17.10;;;;;;;8.84;100.00;99143.63;5026142;28;20030;-64
2023/12/03 03:14:24;;;;;;;25.15;15.77;;;;;;;8.90;100.00;99142.97;5025990;28;20052;-64
2023/12/03 03:16:50;;;;;;;24.50;16.40;;;;;;;8.90;100.00;99142.97;5026560;28;20036;-66
2023/12/03 03:19:15;;;;;;;26.90;17.65;;;;;;;8.92;100.00;99146.28;5026040;28;20338;-65
2023/12/03 03:21:41;;;;;;;26.58;17.45;;;;;;;8.97;100.00;99157.16;5026713;28;20083;-64
2023/12/03 03:24:06;;;;;;;28.00;17.20;;;;;;;8.98;100.00;99160.63;5037667;28;20033;-65
2023/12/03 03:26:32;;;;;;;25.83;17.17;;;;;;;8.96;100.00;99166.06;5026514;28;20053;-64
2023/12/03 03:28:57;;;;;;;30.23;16.20;;;;;;;9.01;100.00;99157.66;5026286;28;20030;-66
2023/12/03 03:31:23;;;;;;;25.50;16.63;;;;;;;9.04;100.00;99157.31;5026653;28;20038;-64
2023/12/03 03:33:51;;;;;;;25.52;16.35;;;;;;;9.05;100.00;99167.72;5025300;28;20053;-65
2023/12/03 03:36:17;;;;;;;25.58;16.05;;;;;;;9.08;100.00;99169.22;5025615;28;20050;-66
2023/12/03 03:38:45;;;;;;;26.48;17.77;;;;;;;9.00;100.00;99162.13;5025201;28;20381;-66
2023/12/03 03:41:10;;;;;;;32.60;19.10;;;;;;;9.06;100.00;99163.25;5026525;28;20064;-64
2023/12/03 03:43:36;;;;;;;29.90;17.92;;;;;;;9.07;100.00;99163.09;5026119;28;20029;-66
2023/12/03 03:46:02;;;;;;;27.77;16.90;;;;;;;9.05;100.00;99153.69;5023734;28;20034;-65
2023/12/03 03:48:27;;;;;;;27.30;18.35;;;;;;;9.06;100.00;99163.25;5023408;28;20034;-66
2023/12/03 03:50:53;;;;;;;26.30;18.20;;;;;;;9.02;100.00;99156.66;5023951;28;20048;-66
2023/12/03 03:53:18;;;;;;;23.95;18.92;;;;;;;9.01;100.00;99169.03;5024923;28;20087;-64
2023/12/03 03:55:44;;;;;;;29.30;18.73;;;;;;;8.96;100.00;99174.81;5024785;28;20056;-66
2023/12/03 03:58:09;;;;;;;28.38;18.25;;;;;;;8.91;100.00;99165.75;5029982;28;20037;-65
2023/12/03 04:00:36;;;;;;;27.52;18.65;;;;;;;8.95;100.00;99159.97;5024993;28;20050;-66
2023/12/03 04:03:01;;;;;;;30.88;18.65;;;;;;;9.01;100.00;99161.13;5025159;28;20034;-67
2023/12/03 04:05:26;;;;;;;33.35;18.70;;;;;;;9.02;100.00;99159.31;5029434;28;20049;-66
2023/12/03 04:07:52;;;;;;;26.65;16.77;;;;;;;9.06;100.00;99176.47;5024830;28;20358;-65
2023/12/03 04:10:17;;;;;;;29.23;18.35;;;;;;;8.99;100.00;99178.94;5024756;28;20052;-66
2023/12/03 04:12:43;;;;;;;28.00;18.60;;;;;;;9.02;100.00;99181.25;5025367;28;20048;-66
2023/12/03 04:15:09;;;;;;;30.15;20.42;;;;;;;8.83;100.00;99181.59;5025141;28;20045;-66
2023/12/03 04:17:34;;;;;;;31.00;19.65;;;;;;;8.88;100.00;99181.91;5025300;28;20411;-65
2023/12/03 04:20:00;;;;;;;30.77;19.33;;;;;;;8.79;100.00;99181.09;5032036;28;20041;-64
2023/12/03 04:22:25;;;;;;;30.10;19.85;;;;;;;8.90;100.00;99182.56;5024700;28;20053;-65
2023/12/03 04:24:50;;;;;;;28.15;19.80;;;;;;;8.96;100.00;99171.34;5025087;28;20041;-66
2023/12/03 04:27:16;;;;;;;30.23;19.50;;;;;;;9.02;100.00;99191.00;5017944;28;20042;-66
2023/12/03 04:29:42;;;;;;;34.35;21.50;;;;;;;9.00;100.00;99199.09;5025547;28;20373;-66
2023/12/03 04:32:08;;;;;;;31.98;21.10;;;;;;;8.80;100.00;99203.88;5024444;28;20030;-64
2023/12/03 04:34:33;;;;;;;30.70;22.48;;;;;;;8.86;100.00;99210.31;5025430;28;20047;-66
2023/12/03 04:36:59;;;;;;;33.70;23.30;;;;;;;8.88;100.00;99214.44;5023963;28;20037;-64
2023/12/03 04:39:24;;;;;;;32.28;23.73;;;;;;;8.87;100.00;99202.22;5024008;28;20037;-66
2023/12/03 04:41:50;;;;;;;32.17;23.15;;;;;;;8.85;100.00;99216.56;5025325;28;20105;-66
2023/12/03 04:44:15;;;;;;;28.20;19.58;;;;;;;8.87;100.00;99228.63;5024852;28;20029;-64
2023/12/03 04:46:41;;;;;;;25.35;16.95;;;;;;;8.59;100.00;99221.97;5032188;28;20033;-66
2023/12/03 04:49:07;;;;;;;24.50;16.73;;;;;;;8.26;100.00;99223.66;5024766;28;20037;-64
2023/12/03 04:51:33;;;;;;;34.33;23.70;;;;;;;8.11;100.00;99222.59;5023963;28;20041;-64
2023/12/03 04:53:58;;;;;;;34.08;24.45;;;;;;;8.14;100.00;99224.91;5026214;28;20267;-66
2023/12/03 04:56:24;;;;;;;34.97;22.48;;;;;;;8.05;100.00;99223.22;5024966;28;20048;-66
2023/12/03 04:58:49;;;;;;;27.50;18.80;;;;;;;8.11;100.00;99225.25;5024592;28;20021;-64
2023/12/03 05:01:17;;;;;;;27.30;18.10;;;;;;;8.28;100.00;99225.13;5024996;28;20037;-64
2023/12/03 05:03:42;;;;;;;33.08;20.52;;;;;;;8.44;100.00;99231.50;5027480;28;20084;-66
2023/12/03 05:06:08;;;;;;;26.75;18.15;;;;;;;8.55;100.00;99239.94;5039729;28;20247;-66
2023/12/03 05:08:33;;;;;;;28.38;18.05;;;;;;;8.71;100.00;99233.06;5027702;28;20438;-64
2023/12/03 05:11:06;;;;;;;28.08;18.27;;;;;;;8.84;100.00;99241.31;5028209;28;20044;-65
2023/12/03 05:13:32;;;;;;;27.08;17.33;;;;;;;8.91;100.00;99237.88;5027626;28;20030;-64
2023/12/03 05:15:57;;;;;;;26.70;16.85;;;;;;;9.01;100.00;99245.63;5030117;28;20056;-66
2023/12/03 05:18:22;;;;;;;20.33;15.25;;;;;;;8.95;100.00;99252.38;5031766;28;20026;-65
2023/12/03 05:20:48;;;;;;;21.58;15.02;;;;;;;8.90;100.00;99244.13;5027627;28;20044;-64
2023/12/03 05:23:14;;;;;;;21.30;13.82;;;;;;;8.93;100.00;99242.97;5032389;28;20037;-66
2023/12/03 05:25:39;;;;;;;20.08;12.65;;;;;;;8.91;100.00;99237.88;5029955;28;20366;-66
2023/12/03 05:28:05;;;;;;;21.50;13.70;;;;;;;8.90;100.00;99228.28;5028035;28;20274;-65
2023/12/03 05:30:30;;;;;;;23.98;15.65;;;;;;;8.96;100.00;99234.72;5032226;28;20033;-66
2023/12/03 05:32:56;;;;;;;32.83;20.52;;;;;;;8.95;100.00;99239.19;5028155;28;20036;-66
2023/12/03 05:35:22;;;;;;;28.27;20.30;;;;;;;8.96;100.00;99234.72;5031808;28;20051;-64
2023/12/03 05:37:47;;;;;;;37.90;22.38;;;;;;;9.05;100.00;99241.66;5027380;28;20118;-64
2023/12/03 05:40:13;;;;;;;53.63;24.98;;;;;;;8.99;100.00;99230.94;5027401;28;20290;-64
2023/12/03 05:42:38;;;;;;;28.40;18.60;;;;;;;8.96;100.00;99240.84;5027481;28;20042;-65
2023/12/03 05:45:04;;;;;;;22.08;16.02;;;;;;;8.96;100.00;99238.19;5028224;28;20091;-65
2023/12/03 05:47:31;;;;;;;39.97;19.60;;;;;;;8.94;100.00;99250.75;5035247;28;20215;-63
2023/12/03 05:49:58;;;;;;;28.08;16.00;;;;;;;8.95;100.00;99239.19;5034797;28;20362;-66
2023/12/03 05:52:24;;;;;;;42.92;22.58;;;;;;;8.96;100.00;99237.38;5025228;28;20150;-66
2023/12/03 05:54:49;;;;;;;37.05;20.23;;;;;;;8.99;100.00;99228.28;5027419;28;20049;-66
2023/12/03 05:57:15;;;;;;;26.48;17.92;;;;;;;9.02;100.00;99235.88;5026803;28;20029;-64
2023/12/03 05:59:40;;;;;;;25.92;17.55;;;;;;;9.00;100.00;99235.22;5027160;28;20045;-64
2023/12/03 06:02:05;;;;;;;22.95;15.13;;;;;;;9.04;100.00;99232.09;5029622;28;20037;-66
2023/12/03 06:04:31;;;;;;;21.02;15.30;;;;;;;8.98;100.00;99238.03;5031009;28;20339;-66
2023/12/03 06:06:57;;;;;;;20.20;15.35;;;;;;;9.00;100.00;99233.41;5026964;28;20034;-65
2023/12/03 06:09:22;;;;;;;21.23;14.60;;;;;;;9.00;100.00;99238.69;5026861;28;20259;-66
2023/12/03 06:11:47;;;;;;;22.70;14.07;;;;;;;8.98;100.00;99242.50;5030774;28;20079;-64
2023/12/03 06:14:13;;;;;;;22.65;15.18;;;;;;;8.95;100.00;99251.56;5026227;28;20060;-66
2023/12/03 06:16:38;;;;;;;22.25;15.18;;;;;;;8.96;100.00;99250.56;5027591;28;20029;-65
2023/12/03 06:19:04;;;;;;;27.05;18.25;;;;;;;8.91;100.00;99251.06;5031042;28;20274;-66
2023/12/03 06:21:29;;;;;;;27.63;19.52;;;;;;;8.83;100.00;99243.13;5027765;28;20418;-64
2023/12/03 06:23:56;;;;;;;39.35;23.25;;;;;;;8.91;100.00;99250.25;5026594;28;20030;-64
2023/12/03 06:26:21;;;;;;;47.10;24.67;;;;;;;8.90;100.00;99252.06;5026788;28;20236;-64
2023/12/03 06:28:46;;;;;;;51.30;28.70;;;;;;;8.98;100.00;99259.16;5027017;28;20053;-66
2023/12/03 06:31:12;;;;;;;50.95;29.05;;;;;;;8.99;100.00;99254.69;5035790;28;20037;-66
2023/12/03 06:33:38;;;;;;;55.70;31.08;;;;;;;8.98;100.00;99253.88;5024969;28;20050;-65
2023/12/03 06:36:04;;;;;;;65.05;36.15;;;;;;;8.96;100.00;99263.78;5026895;28;20077;-66
2023/12/03 06:38:29;;;;;;;58.95;34.45;;;;;;;9.07;100.00;99260.00;5026805;28;20042;-66
2023/12/03 06:40:55;;;;;;;51.28;28.35;;;;;;;8.99;100.00;99252.88;5027247;28;20342;-67
2023/12/03 06:43:20;;;;;;;47.42;26.10;;;;;;;8.92;100.00;99260.63;5026659;28;20034;-64
2023/12/03 06:45:46;;;;;;;41.20;24.75;;;;;;;8.96;100.00;99267.25;5027830;28;20894;-64
2023/12/03 06:48:11;;;;;;;35.47;23.95;;;;;;;8.98;100.00;99279.47;5027687;28;20033;-64
2023/12/03 06:50:37;;;;;;;46.30;27.00;;;;;;;9.00;100.00;99288.88;5027282;28;20042;-64
2023/12/03 06:53:02;;;;;;;47.58;30.50;;;;;;;9.05;100.00;99289.22;5026527;28;20049;-65
2023/12/03 06:55:28;;;;;;;49.08;29.23;;;;;;;9.15;100.00;99310.19;5023716;28;20045;-66
2023/12/03 06:57:53;;;;;;;50.33;29.23;;;;;;;9.15;100.00;99307.53;5026130;28;20101;-66
2023/12/03 07:00:20;;;;;;;53.35;35.78;;;;;;;9.23;100.00;99299.63;5026619;28;20046;-66
2023/12/03 07:02:45;;;;;;;61.35;34.75;;;;;;;9.24;100.00;99290.72;5026065;28;20104;-66
2023/12/03 07:05:11;;;;;;;50.38;29.63;;;;;;;9.26;100.00;99301.94;5027268;28;20043;-64
2023/12/03 07:07:36;;;;;;;50.90;30.67;;;;;;;9.28;100.00;99286.75;5025902;28;20334;-66
2023/12/03 07:10:03;;;;;;;41.67;31.90;;;;;;;9.34;100.00;99293.19;5026007;28;20041;-66
2023/12/03 07:12:29;;;;;;;46.03;28.23;;;;;;;9.14;100.00;99303.25;5032682;28;20275;-66
2023/12/03 07:14:55;;;;;;;40.78;27.83;;;;;;;9.11;100.00;99307.03;5025772;28;20049;-64
2023/12/03 07:17:20;;;;;;;43.05;29.80;;;;;;;9.12;100.00;99294.66;5026179;28;20287;-66
2023/12/03 07:19:46;;;;;;;35.45;24.13;;;;;;;9.08;100.00;99317.09;5030088;28;20350;-65
2023/12/03 07:22:12;;;;;;;31.88;24.52;;;;;;;9.25;100.00;99313.50;5023770;28;20048;-66
2023/12/03 07:24:38;;;;;;;28.65;19.17;;;;;;;9.35;100.00;99315.97;5026302;28;20038;-66
2023/12/03 07:27:05;;;;;;;30.00;18.98;;;;;;;9.27;100.00;99306.22;5026143;28;20251;-64
2023/12/03 07:29:30;;;;;;;44.58;26.05;;;;;;;9.11;100.00;99322.06;5024978;28;20081;-66
2023/12/03 07:31:55;;;;;;;37.85;25.42;;;;;;;9.20;100.00;99311.34;5026166;28;20042;-66
2023/12/03 07:34:21;;;;;;;25.92;16.50;;;;;;;9.24;100.00;99323.22;5025631;28;20041;-64
2023/12/03 07:36:46;;;;;;;22.98;13.07;;;;;;;9.25;100.00;99331.97;5025495;28;20047;-66
2023/12/03 07:39:12;;;;;;;22.80;13.63;;;;;;;9.26;100.00;99341.56;5025526;28;20045;-66
2023/12/03 07:41:37;;;;;;;22.02;14.00;;;;;;;9.28;100.00;99336.94;5025534;28;20041;-64
2023/12/03 07:44:02;;;;;;;23.45;13.60;;;;;;;9.30;100.00;99321.75;5025430;28;20132;-64
2023/12/03 07:46:28;;;;;;;23.05;15.80;;;;;;;9.33;100.00;99318.78;5024918;28;20406;-64
2023/12/03 07:48:53;;;;;;;29.65;19.60;;;;;;;9.41;100.00;99324.09;5024568;28;20030;-66
2023/12/03 07:51:19;;;;;;;27.10;19.30;;;;;;;9.02;100.00;99321.22;5025361;28;20038;-66
2023/12/03 07:53:44;;;;;;;36.20;26.80;;;;;;;9.04;100.00;99328.97;5025190;28;20037;-65
2023/12/03 07:56:10;;;;;;;21.48;14.50;;;;;;;9.18;100.00;99345.03;5029321;28;20033;-64
2023/12/03 07:58:36;;;;;;;19.23;13.63;;;;;;;9.18;100.00;99341.56;5026213;28;20033;-64
2023/12/03 08:01:03;;;;;;;24.58;17.25;;;;;;;8.93;100.00;99346.78;5031801;28;20079;-64
2023/12/03 08:03:29;;;;;;;27.15;19.55;;;;;;;9.07;100.00;99345.31;5025026;28;20033;-64
2023/12/03 08:05:54;;;;;;;27.70;22.88;;;;;;;9.11;100.00;99351.94;5025383;28;20069;-64
2023/12/03 08:08:20;;;;;;;16.35;11.00;;;;;;;9.21;100.00;99363.19;5024938;28;20327;-64
2023/12/03 08:10:45;;;;;;;23.02;17.13;;;;;;;9.30;100.00;99361.38;5025410;28;20052;-64
2023/12/03 08:13:11;;;;;;;20.58;14.60;;;;;;;9.37;100.00;99351.03;5032814;28;20037;-64
2023/12/03 08:15:36;;;;;;;21.35;11.38;;;;;;;9.44;100.00;99362.59;5032027;28;20048;-66
2023/12/03 08:18:01;;;;;;;18.98;11.23;;;;;;;9.53;100.00;99354.50;5025340;28;20888;-66
2023/12/03 08:20:27;;;;;;;16.67;10.43;;;;;;;9.57;100.00;99352.34;5025238;28;20088;-66
2023/12/03 08:22:53;;;;;;;17.77;11.88;;;;;;;9.62;100.00;99368.53;5024651;28;20109;-67
2023/12/03 08:25:18;;;;;;;20.27;12.88;;;;;;;9.69;100.00;99371.34;5024510;28;20036;-67
2023/12/03 08:27:44;;;;;;;24.90;15.07;;;;;;;9.82;100.00;99361.09;5028505;28;20042;-65
2023/12/03 08:30:10;;;;;;;19.90;14.10;;;;;;;9.90;100.00;99356.63;5024660;28;20037;-66
2023/12/03 08:32:35;;;;;;;19.98;13.80;;;;;;;9.96;100.00;99354.31;5031656;28;20087;-66
2023/12/03 08:35:01;;;;;;;17.10;12.00;;;;;;;10.03;100.00;99352.66;5024653;28;20049;-66
2023/12/03 08:37:26;;;;;;;20.98;11.95;;;;;;;10.10;100.00;99358.91;5023972;28;20030;-66
2023/12/03 08:39:54;;;;;;;19.08;12.50;;;;;;;10.15;100.00;99367.16;5028440;28;20041;-62
2023/12/03 08:42:19;;;;;;;22.52;14.43;;;;;;;10.19;100.00;99358.72;5025620;28;20062;-62
2023/12/03 08:44:45;;;;;;;17.00;11.48;;;;;;;10.16;100.00;99366.16;5024400;28;20042;-62
2023/12/03 08:47:11;;;;;;;21.33;14.18;;;;;;;10.05;100.00;99385.88;5024498;28;20029;-63
2023/12/03 08:49:36;;;;;;;16.55;10.05;;;;;;;10.10;100.00;99380.06;5025233;28;20049;-61
2023/12/03 08:52:02;;;;;;;14.88;9.68;;;;;;;10.16;100.00;99374.94;5024661;28;20076;-64
2023/12/03 08:54:27;;;;;;;16.63;9.82;;;;;;;10.26;100.00;99377.44;5024201;28;20076;-64
2023/12/03 08:56:53;;;;;;;20.75;11.43;;;;;;;10.37;100.00;99370.94;5032127;28;20083;-63
2023/12/03 08:59:19;;;;;;;18.60;10.43;;;;;;;10.39;100.00;99375.06;5021504;28;20416;-62
2023/12/03 09:01:45;;;;;;;18.23;11.90;;;;;;;10.42;100.00;99366.00;5031203;28;20036;-63
2023/12/03 09:04:12;;;;;;;16.67;11.32;;;;;;;10.45;100.00;99358.56;5024165;28;20096;-62
2023/12/03 09:06:39;;;;;;;18.42;12.50;;;;;;;10.49;100.00;99359.03;5026701;28;20383;-64
2023/12/03 09:09:04;;;;;;;19.77;13.43;;;;;;;10.53;100.00;99360.34;5023909;28;20108;-64
2023/12/03 09:11:30;;;;;;;22.33;13.73;;;;;;;10.45;100.00;99363.00;5024224;28;20037;-62
2023/12/03 09:13:55;;;;;;;21.00;13.88;;;;;;;10.46;100.00;99380.56;5024275;28;20388;-62
2023/12/03 09:16:21;;;;;;;27.10;15.43;;;;;;;10.54;100.00;99384.00;5032634;28;20037;-64
2023/12/03 09:18:46;;;;;;;36.20;20.38;;;;;;;10.47;100.00;99388.31;5024145;28;20377;-61
2023/12/03 09:21:13;;;;;;;44.38;22.08;;;;;;;10.59;100.00;99393.25;5024093;28;20096;-62
2023/12/03 09:23:38;;;;;;;40.72;20.23;;;;;;;10.67;100.00;99380.81;5022816;28;20033;-62
2023/12/03 09:26:04;;;;;;;67.07;30.55;;;;;;;10.75;100.00;99391.38;5022140;28;20038;-64
2023/12/03 09:28:30;;;;;;;79.18;35.60;;;;;;;10.85;100.00;99380.56;5030681;28;20041;-61
2023/12/03 09:30:57;;;;;;;69.75;34.40;;;;;;;10.94;100.00;99376.88;5027097;28;20042;-61
2023/12/03 09:33:26;;;;;;;50.70;25.45;;;;;;;11.03;100.00;99377.66;5024347;28;20038;-64
2023/12/03 09:35:51;;;;;;;36.10;20.38;;;;;;;11.08;100.00;99380.63;5025496;28;20115;-64
2023/12/03 09:38:17;;;;;;;34.60;19.05;;;;;;;11.13;100.00;99381.75;5032854;28;20045;-62
2023/12/03 09:40:44;;;;;;;39.28;21.75;;;;;;;11.18;100.00;99389.16;5032898;28;20038;-64
2023/12/03 09:43:10;;;;;;;38.20;25.30;;;;;;;11.24;100.00;99395.59;5032179;28;20029;-62
2023/12/03 09:45:37;;;;;;;41.75;26.45;;;;;;;11.31;100.00;99405.31;5029788;28;20112;-62
2023/12/03 09:48:03;;;;;;;36.60;23.40;;;;;;;11.37;100.00;99401.97;5016614;28;20356;-64
2023/12/03 09:50:34;;;;;;;38.03;23.10;;;;;;;11.42;100.00;99396.16;5019142;28;20037;-62
2023/12/03 09:53:02;;;;;;;34.42;19.98;;;;;;;11.48;100.00;99391.00;5021057;28;20385;-62
2023/12/03 09:55:30;;;;;;;32.33;20.33;;;;;;;11.54;100.00;99400.06;5020774;28;20248;-62
2023/12/03 09:57:59;;;;;;;32.97;19.77;;;;;;;11.61;100.00;99387.75;5020676;28;20038;-62
2023/12/03 10:00:24;;;;;;;31.65;19.30;;;;;;;11.67;100.00;99378.25;5021237;28;20048;-62
2023/12/03 10:02:53;;;;;;;28.75;17.05;;;;;;;11.74;100.00;99387.97;5020711;28;20033;-64
2023/12/03 10:05:18;;;;;;;21.95;16.33;;;;;;;11.78;100.00;99385.84;5021934;28;20254;-64
2023/12/03 10:07:47;;;;;;;30.17;17.55;;;;;;;11.82;100.00;99389.78;5021596;28;20038;-64
2023/12/03 10:10:16;;;;;;;26.63;16.60;;;;;;;11.86;100.00;99382.28;5019668;28;20049;-61
2023/12/03 10:12:42;;;;;;;23.67;16.40;;;;;;;11.90;100.00;99387.06;5019841;28;20041;-62
2023/12/03 10:15:12;;;;;;;31.60;18.45;;;;;;;11.94;100.00;99377.72;5020222;28;20128;-62
2023/12/03 10:17:40;;;;;;;35.65;19.13;;;;;;;11.98;100.00;99394.13;5020701;28;20065;-64
2023/12/03 10:20:18;;;;;;;36.35;18.20;;;;;;;12.02;100.00;99390.91;5019920;28;20069;-62
2023/12/03 10:22:43;;;;;;;28.33;17.23;;;;;;;12.03;100.00;99387.25;5020305;28;20310;-61
2023/12/03 10:25:09;;;;;;;33.70;18.25;;;;;;;12.05;100.00;99376.47;5020036;28;20034;-65
2023/12/03 10:27:35;;;;;;;26.33;17.63;;;;;;;12.05;100.00;99374.66;5018561;28;20029;-62
2023/12/03 10:30:01;;;;;;;33.35;20.38;;;;;;;12.07;100.00;99374.47;5019761;28;20044;-64
2023/12/03 10:32:27;;;;;;;38.97;22.38;;;;;;;12.11;100.00;99367.78;5019170;28;20030;-64
2023/12/03 10:34:54;;;;;;;40.15;22.30;;;;;;;12.09;100.00;99367.16;5020209;28;20045;-63
2023/12/03 10:37:19;;;;;;;29.40;16.27;;;;;;;12.12;100.00;99364.94;5019902;28;20037;-61
2023/12/03 10:39:46;;;;;;;23.85;14.38;;;;;;;12.16;100.00;99357.44;5020258;28;20041;-64
2023/12/03 10:42:12;;;;;;;24.30;13.32;;;;;;;12.18;100.00;99359.94;5018936;28;20025;-65
2023/12/03 10:44:38;;;;;;;28.17;16.02;;;;;;;12.24;100.00;99364.50;5019820;28;20337;-64
2023/12/03 10:47:03;;;;;;;25.17;14.85;;;;;;;12.30;100.00;99363.78;5018834;28;20025;-64
2023/12/03 10:49:31;;;;;;;24.38;13.75;;;;;;;12.18;100.00;99360.75;5020455;28;20064;-66
2023/12/03 10:51:57;;;;;;;20.55;13.07;;;;;;;12.26;100.00;99378.41;5020052;28;20169;-66
2023/12/03 10:54:23;;;;;;;23.30;14.05;;;;;;;12.28;100.00;99369.28;5018716;28;20070;-65
2023/12/03 10:56:54;;;;;;;28.25;16.02;;;;;;;12.35;100.00;99375.50;5019770;28;20045;-67
2023/12/03 10:59:23;;;;;;;28.55;17.70;;;;;;;12.39;100.00;99382.09;5020067;28;20232;-67
2023/12/03 11:01:54;;;;;;;31.98;18.80;;;;;;;12.39;100.00;99373.31;5019999;28;20040;-66
2023/12/03 11:04:45;;;;;;;33.63;20.55;;;;;;;12.41;100.00;99381.91;5019005;28;20038;-66
2023/12/03 11:07:18;;;;;;;26.83;18.00;;;;;;;12.37;100.00;99377.97;5019009;28;20106;-64
2023/12/03 11:09:43;;;;;;;29.25;17.25;;;;;;;12.39;100.00;99370.66;5018818;28;20322;-65